General Aviation Weather

Text Reports

Enter one or more of the following location identifiers separated by a space:

Zip Code, Four-Character ICAO or Three-Character IATA airport codes.

METAR - Aviation Routine Weather Report
KRAC - Racine, Wisconsin
Updated at 12:53 PM GMT on December 26, 2014 (6:53 AM CST):
METAR KRAC 261253Z AUTO 22008G17KT 10SM CLR 03/00 A2998 RMK AO2 SLP158 T00330000
TAF - Terminal Area Forecast
KRAC - Racine, Wisconsin
Updated at 12:53 PM GMT on December 26, 2014 (6:53 AM CST):
No TAF is currently available for this location.
Decoded:
No decoded TAF is available.
PIREP - Pilot Weather Report
KRAC - Racine, Wisconsin
Updated at 12:53 PM GMT on December 26, 2014 (6:53 AM CST):
No PIREP is currently available for this location.
AIRMET - Airmens Meteorological Information
KRAC - Racine, Wisconsin
Updated at 12:53 PM GMT on December 26, 2014 (6:53 AM CST):
No AIRMET is currently available for this location.
SIGMET - Significant Meteorological Information
KRAC - Racine, Wisconsin
Updated at 12:53 PM GMT on December 26, 2014 (6:53 AM CST):
No SIGMET is currently available for this location.
NOTAM - Notice to Airmen
KRAC - Racine, Wisconsin
Updated at 12:53 PM GMT on December 26, 2014 (6:53 AM CST):
No NOTAM is currently available for this location.
Forecast Area
KRAC - Racine, Wisconsin
Updated at 12:53 PM GMT on December 26, 2014 (6:53 AM CST):
No NOTAM is currently available for this location.
Aviation Weather Maps